createdAt,value
2017-07-22T00:00:23.284Z,15.4
2017-07-22T00:00:51.507Z,15.41
2017-07-22T00:01:19.750Z,15.41
2017-07-22T00:01:47.893Z,15.31
2017-07-22T00:02:16.137Z,15.31
2017-07-22T00:02:44.372Z,15.35
2017-07-22T00:03:12.563Z,15.26
2017-07-22T00:03:40.677Z,15.33
2017-07-22T00:04:08.882Z,15.27
2017-07-22T00:04:37.036Z,15.23
2017-07-22T00:05:05.240Z,15.27
2017-07-22T00:05:33.460Z,15.26
2017-07-22T00:06:01.714Z,15.27
2017-07-22T00:06:29.770Z,15.25
2017-07-22T00:06:57.790Z,15.27
2017-07-22T00:07:26.001Z,15.2
2017-07-22T00:07:54.182Z,15.27
2017-07-22T00:08:22.291Z,15.26
2017-07-22T00:08:50.402Z,15.2
2017-07-22T00:09:18.531Z,15.18
2017-07-22T00:09:46.747Z,15.16
2017-07-22T00:10:15.060Z,15.16
2017-07-22T00:10:43.155Z,15.16
2017-07-22T00:11:11.324Z,15.19
2017-07-22T00:11:39.241Z,15.22
2017-07-22T00:12:07.458Z,15.18
2017-07-22T00:12:35.639Z,15.15
2017-07-22T00:13:03.827Z,15.18
2017-07-22T00:13:32.045Z,15.2
2017-07-22T00:14:00.238Z,15.15
2017-07-22T00:14:28.296Z,15.12
2017-07-22T00:14:56.447Z,15.15
2017-07-22T00:15:24.500Z,15.1
2017-07-22T00:15:52.712Z,15.1
2017-07-22T00:16:20.942Z,15.08
2017-07-22T00:16:49.112Z,15.05
2017-07-22T00:17:17.241Z,15.07
2017-07-22T00:17:45.228Z,15.07
2017-07-22T00:18:13.365Z,15.01
2017-07-22T00:18:41.494Z,15.02
2017-07-22T00:19:09.729Z,14.98
2017-07-22T00:19:37.967Z,15
2017-07-22T00:20:06.019Z,14.98
2017-07-22T00:20:34.275Z,14.94
2017-07-22T00:21:02.476Z,14.94
2017-07-22T00:21:30.706Z,14.98
2017-07-22T00:21:58.850Z,14.98
2017-07-22T00:22:27.026Z,14.98
2017-07-22T00:22:55.212Z,14.97
2017-07-22T00:23:23.328Z,14.98
2017-07-22T00:23:51.417Z,15
2017-07-22T00:24:19.608Z,15.08
2017-07-22T00:24:47.721Z,15.07
2017-07-22T00:25:16.089Z,15.07
2017-07-22T00:25:44.230Z,15.1
2017-07-22T00:26:12.504Z,15.02
2017-07-22T00:26:40.711Z,15.08
2017-07-22T00:27:08.845Z,15.15
2017-07-22T00:27:37.056Z,15.04
2017-07-22T00:28:05.319Z,15.12
2017-07-22T00:28:33.532Z,15.08
2017-07-22T00:29:01.649Z,15.05
2017-07-22T00:29:29.876Z,15.07
2017-07-22T00:29:58.049Z,15.07
2017-07-22T00:30:26.308Z,15.08
2017-07-22T00:30:54.461Z,15.08
2017-07-22T00:31:22.677Z,15.1
2017-07-22T00:31:50.776Z,15.07
2017-07-22T00:32:19.007Z,15.08
2017-07-22T00:32:47.097Z,15.2
2017-07-22T00:33:15.376Z,15.15
2017-07-22T00:33:43.597Z,15.12
2017-07-22T00:34:11.801Z,15.04
2017-07-22T00:34:39.922Z,15.02
2017-07-22T00:35:08.079Z,15.1
2017-07-22T00:35:36.424Z,15.05
2017-07-22T00:36:04.662Z,15.05
2017-07-22T00:36:32.932Z,15.01
2017-07-22T00:37:00.985Z,15.08
2017-07-22T00:37:29.257Z,15
2017-07-22T00:37:57.355Z,14.97
2017-07-22T00:38:25.613Z,14.95
2017-07-22T00:38:53.870Z,14.95
2017-07-22T00:39:21.951Z,14.93
2017-07-22T00:39:49.948Z,14.94
2017-07-22T00:40:17.963Z,15
2017-07-22T00:40:46.267Z,14.93
2017-07-22T00:41:14.464Z,14.94
2017-07-22T00:41:42.579Z,14.93
2017-07-22T00:42:10.803Z,14.93
2017-07-22T00:42:39.189Z,14.8
2017-07-22T00:43:07.690Z,14.79
2017-07-22T00:43:35.864Z,14.83
2017-07-22T00:44:04.266Z,14.86
2017-07-22T00:44:32.574Z,14.77
2017-07-22T00:45:00.578Z,14.82
2017-07-22T00:45:28.741Z,14.86
2017-07-22T00:45:56.976Z,14.93
2017-07-22T00:46:25.061Z,14.82
2017-07-22T00:46:53.261Z,14.83
2017-07-22T00:47:21.345Z,14.77
2017-07-22T00:47:49.455Z,14.66
2017-07-22T00:48:17.557Z,14.69
2017-07-22T00:48:45.844Z,14.6
2017-07-22T00:49:14.015Z,14.61
2017-07-22T00:49:42.182Z,14.63
2017-07-22T00:50:10.424Z,14.57
2017-07-22T00:50:38.526Z,14.7
2017-07-22T00:51:06.627Z,14.61
2017-07-22T00:51:34.734Z,14.64
2017-07-22T00:52:03.009Z,14.6
2017-07-22T00:52:31.001Z,14.49
2017-07-22T00:52:59.034Z,14.51
2017-07-22T00:53:27.287Z,14.49
2017-07-22T00:53:55.527Z,14.39
2017-07-22T00:54:23.758Z,14.34
2017-07-22T00:54:52.046Z,14.31
2017-07-22T00:55:20.310Z,14.26
2017-07-22T00:55:48.507Z,14.31
2017-07-22T00:56:16.533Z,14.3
2017-07-22T00:56:44.723Z,14.27
2017-07-22T00:57:12.912Z,14.23
2017-07-22T00:57:40.953Z,14.23
2017-07-22T00:58:09.188Z,14.19
2017-07-22T00:58:37.276Z,14.21
2017-07-22T00:59:05.303Z,14.19
2017-07-22T00:59:33.407Z,14.15
2017-07-22T01:00:01.597Z,14.16
2017-07-22T01:00:29.802Z,14.03
2017-07-22T01:00:58.158Z,14.13
2017-07-22T01:01:26.376Z,14.15
2017-07-22T01:01:54.505Z,14.06
2017-07-22T01:02:22.753Z,14.08
2017-07-22T01:02:50.901Z,14.12
2017-07-22T01:03:19.018Z,14.08
2017-07-22T01:03:47.145Z,14.03
2017-07-22T01:04:15.364Z,13.95
2017-07-22T01:04:43.567Z,14.02
2017-07-22T01:05:11.694Z,13.94
2017-07-22T01:05:39.926Z,14.01
2017-07-22T01:06:08.066Z,13.99
2017-07-22T01:06:36.063Z,13.95
2017-07-22T01:07:04.280Z,13.95
2017-07-22T01:07:32.436Z,13.9
2017-07-22T01:08:00.666Z,13.9
2017-07-22T01:08:28.892Z,13.93
2017-07-22T01:08:57.181Z,13.84
2017-07-22T01:09:25.425Z,13.86
2017-07-22T01:09:53.564Z,13.87
2017-07-22T01:10:21.761Z,13.93
2017-07-22T01:10:49.958Z,13.86
2017-07-22T01:11:17.998Z,13.76
2017-07-22T01:11:46.207Z,13.83
2017-07-22T01:12:14.345Z,13.73
2017-07-22T01:12:42.561Z,13.75
2017-07-22T01:13:10.596Z,13.73
2017-07-22T01:13:38.599Z,13.72
2017-07-22T01:14:06.520Z,13.75
2017-07-22T01:14:34.730Z,13.7
2017-07-22T01:15:02.973Z,13.75
2017-07-22T01:15:31.151Z,13.68
2017-07-22T01:15:59.364Z,13.75
2017-07-22T01:16:27.528Z,13.72
2017-07-22T01:16:55.654Z,13.72
2017-07-22T01:17:23.894Z,13.73
2017-07-22T01:17:52.077Z,13.72
2017-07-22T01:18:20.311Z,13.73
2017-07-22T01:18:48.524Z,13.78
2017-07-22T01:19:16.709Z,13.81
2017-07-22T01:19:44.773Z,13.84
2017-07-22T01:20:12.790Z,13.83
2017-07-22T01:20:40.831Z,13.76
2017-07-22T01:21:09.136Z,13.87
2017-07-22T01:21:37.308Z,13.86
2017-07-22T01:22:05.388Z,13.87
2017-07-22T01:22:33.630Z,13.9
2017-07-22T01:23:01.724Z,13.99
2017-07-22T01:23:29.993Z,13.91
2017-07-22T01:23:58.017Z,13.91
2017-07-22T01:24:26.246Z,13.95
2017-07-22T01:24:54.493Z,13.94
2017-07-22T01:25:22.677Z,14.08
2017-07-22T01:25:50.962Z,14.05
2017-07-22T01:26:19.058Z,14.08
2017-07-22T01:26:47.285Z,14.05
2017-07-22T01:27:15.509Z,14.11
2017-07-22T01:27:43.626Z,14.08
2017-07-22T01:28:11.726Z,14.06
2017-07-22T01:28:39.854Z,14.13
2017-07-22T01:29:08.028Z,14.06
2017-07-22T01:29:36.260Z,14.06
2017-07-22T01:30:04.420Z,14.06
2017-07-22T01:30:32.578Z,14.09
2017-07-22T01:31:00.889Z,14.09
2017-07-22T01:31:29.056Z,14.08
2017-07-22T01:31:57.238Z,14.08
2017-07-22T01:32:25.420Z,14.06
2017-07-22T01:32:53.524Z,14.09
2017-07-22T01:33:21.645Z,14.06
2017-07-22T01:33:49.838Z,14.09
2017-07-22T01:34:17.873Z,13.94
2017-07-22T01:34:46.014Z,13.95
2017-07-22T01:35:14.106Z,13.94
2017-07-22T01:35:42.346Z,13.93
2017-07-22T01:36:10.595Z,13.93
2017-07-22T01:36:38.692Z,13.97
2017-07-22T01:37:06.858Z,13.93
2017-07-22T01:37:35.062Z,13.97
2017-07-22T01:38:03.297Z,13.97
2017-07-22T01:38:31.521Z,13.99
2017-07-22T01:38:59.730Z,14.06
2017-07-22T01:39:27.913Z,14.09
2017-07-22T01:39:56.061Z,14.12
2017-07-22T01:40:24.286Z,14.13
2017-07-22T01:40:52.647Z,14.08
2017-07-22T01:41:20.675Z,14.13
2017-07-22T01:41:48.627Z,14.11
2017-07-22T01:42:16.879Z,14.01
2017-07-22T01:42:45.103Z,13.97
2017-07-22T01:43:13.385Z,13.93
2017-07-22T01:43:41.519Z,13.9
2017-07-22T01:44:09.715Z,13.93
2017-07-22T01:44:37.847Z,13.87
2017-07-22T01:45:06.100Z,13.84
2017-07-22T01:45:34.372Z,13.81
2017-07-22T01:46:02.633Z,13.87
2017-07-22T01:46:30.901Z,13.7
2017-07-22T01:46:59.144Z,13.79
2017-07-22T01:47:27.370Z,13.75
2017-07-22T01:47:55.559Z,13.78
2017-07-22T01:48:23.791Z,13.75
2017-07-22T01:48:52.019Z,13.78
2017-07-22T01:49:20.216Z,13.75
2017-07-22T01:49:48.380Z,13.72
2017-07-22T01:50:16.631Z,13.7
2017-07-22T01:50:44.882Z,13.79
2017-07-22T01:51:13.748Z,13.78
2017-07-22T01:51:42.748Z,13.81
2017-07-22T01:52:10.958Z,13.78
2017-07-22T01:52:39.146Z,13.75
2017-07-22T01:53:07.337Z,13.75
2017-07-22T01:53:35.586Z,13.72
2017-07-22T01:54:03.816Z,13.68
2017-07-22T01:54:31.931Z,13.65
2017-07-22T01:55:00.028Z,13.66
2017-07-22T01:55:28.098Z,13.65
2017-07-22T01:55:56.312Z,13.6
2017-07-22T01:56:24.653Z,13.63
2017-07-22T01:56:52.788Z,13.65
2017-07-22T01:57:21.037Z,13.6
2017-07-22T01:57:49.288Z,13.57
2017-07-22T01:58:17.511Z,13.6
2017-07-22T01:58:45.694Z,13.68
2017-07-22T01:59:13.689Z,13.62
2017-07-22T01:59:41.860Z,13.6
2017-07-22T02:00:10.102Z,13.58
2017-07-22T02:00:38.322Z,13.62
2017-07-22T02:01:06.322Z,13.68
2017-07-22T02:01:34.623Z,13.62
2017-07-22T02:02:02.668Z,13.6
2017-07-22T02:02:30.869Z,13.65
2017-07-22T02:02:59.073Z,13.58
2017-07-22T02:03:27.271Z,13.6
2017-07-22T02:03:55.338Z,13.66
2017-07-22T02:04:23.505Z,13.58
2017-07-22T02:04:51.557Z,13.6
2017-07-22T02:05:19.773Z,13.6
2017-07-22T02:05:47.784Z,13.6
2017-07-22T02:06:15.986Z,13.58
2017-07-22T02:06:44.228Z,13.63
2017-07-22T02:07:12.350Z,13.6
2017-07-22T02:07:40.470Z,13.55
2017-07-22T02:08:08.680Z,13.57
2017-07-22T02:08:36.845Z,13.58
2017-07-22T02:09:05.011Z,13.51
2017-07-22T02:09:33.077Z,13.5
2017-07-22T02:10:01.290Z,13.58
2017-07-22T02:10:29.410Z,13.6
2017-07-22T02:10:57.626Z,13.54
2017-07-22T02:11:25.881Z,13.5
2017-07-22T02:11:54.053Z,13.51
2017-07-22T02:12:22.285Z,13.42
2017-07-22T02:12:50.432Z,13.5
2017-07-22T02:13:18.545Z,13.54
2017-07-22T02:13:46.671Z,13.29
2017-07-22T02:14:14.915Z,13.44
2017-07-22T02:14:43.062Z,13.37
2017-07-22T02:15:11.269Z,13.48
2017-07-22T02:15:39.484Z,13.42
2017-07-22T02:16:07.595Z,13.36
2017-07-22T02:16:35.796Z,13.35
2017-07-22T02:17:04.021Z,13.36
2017-07-22T02:17:32.135Z,13.4
2017-07-22T02:18:00.381Z,13.42
2017-07-22T02:18:28.470Z,13.48
2017-07-22T02:18:56.724Z,13.4
2017-07-22T02:19:25.994Z,13.39
2017-07-22T02:19:54.662Z,13.39
2017-07-22T02:20:22.910Z,13.47
2017-07-22T02:20:51.523Z,13.47
2017-07-22T02:21:19.671Z,13.44
2017-07-22T02:21:47.844Z,13.48
2017-07-22T02:22:16.062Z,13.54
2017-07-22T02:22:44.322Z,13.42
2017-07-22T02:23:12.571Z,13.44
2017-07-22T02:23:40.821Z,13.54
2017-07-22T02:24:08.970Z,13.54
2017-07-22T02:24:37.195Z,13.5
2017-07-22T02:25:05.203Z,13.4
2017-07-22T02:25:33.347Z,13.39
2017-07-22T02:26:01.375Z,13.39
2017-07-22T02:26:29.491Z,13.42
2017-07-22T02:26:57.741Z,13.48
2017-07-22T02:27:25.942Z,13.4
2017-07-22T02:27:53.989Z,13.45
2017-07-22T02:28:22.188Z,13.44
2017-07-22T02:28:50.441Z,13.44
2017-07-22T02:29:18.490Z,13.4
2017-07-22T02:29:46.727Z,13.37
2017-07-22T02:30:14.862Z,13.39
2017-07-22T02:30:43.078Z,13.39
2017-07-22T02:31:11.207Z,13.44
2017-07-22T02:31:39.403Z,13.51
2017-07-22T02:32:07.642Z,13.4
2017-07-22T02:32:35.882Z,13.39
2017-07-22T02:33:04.118Z,13.4
2017-07-22T02:33:32.357Z,13.44
2017-07-22T02:34:00.402Z,13.48
2017-07-22T02:34:28.597Z,13.39
2017-07-22T02:34:56.768Z,13.42
2017-07-22T02:35:24.949Z,13.36
2017-07-22T02:35:53.100Z,13.37
2017-07-22T02:36:21.296Z,13.36
2017-07-22T02:36:49.342Z,13.37
2017-07-22T02:37:17.454Z,13.4
2017-07-22T02:37:45.660Z,13.31
2017-07-22T02:38:13.767Z,13.35
2017-07-22T02:38:41.957Z,13.36
2017-07-22T02:39:10.170Z,13.36
2017-07-22T02:39:38.425Z,13.39
2017-07-22T02:40:07.265Z,13.4
2017-07-22T02:40:35.348Z,13.45
2017-07-22T02:41:03.384Z,13.42
2017-07-22T02:41:32.430Z,13.42
2017-07-22T02:42:00.537Z,13.45
2017-07-22T02:42:28.753Z,13.48
2017-07-22T02:42:56.920Z,13.36
2017-07-22T02:43:25.041Z,13.51
2017-07-22T02:43:53.256Z,13.47
2017-07-22T02:44:21.424Z,13.36
2017-07-22T02:44:49.527Z,13.39
2017-07-22T02:45:17.665Z,13.44
2017-07-22T02:45:45.917Z,13.39
2017-07-22T02:46:13.890Z,13.39
2017-07-22T02:46:42.229Z,13.48
2017-07-22T02:47:10.455Z,13.53
2017-07-22T02:47:38.686Z,13.45
2017-07-22T02:48:06.722Z,13.45
2017-07-22T02:48:34.943Z,13.53
2017-07-22T02:49:03.078Z,13.44
2017-07-22T02:49:31.147Z,13.42
2017-07-22T02:49:59.286Z,13.44
2017-07-22T02:50:27.434Z,13.48
2017-07-22T02:50:55.627Z,13.4
2017-07-22T02:51:23.854Z,13.42
2017-07-22T02:51:52.086Z,13.5
2017-07-22T02:52:20.208Z,13.36
2017-07-22T02:52:48.407Z,13.44
2017-07-22T02:53:16.557Z,13.54
2017-07-22T02:53:44.806Z,13.53
2017-07-22T02:54:12.941Z,13.47
2017-07-22T02:54:41.065Z,13.55
2017-07-22T02:55:09.173Z,13.54
2017-07-22T02:55:37.272Z,13.65
2017-07-22T02:56:05.458Z,13.58
2017-07-22T02:56:33.698Z,13.63
2017-07-22T02:57:01.891Z,13.63
2017-07-22T02:57:29.962Z,13.63
2017-07-22T02:57:58.088Z,13.58
2017-07-22T02:58:26.345Z,13.62
2017-07-22T02:58:54.488Z,13.75
2017-07-22T02:59:22.672Z,13.79
2017-07-22T02:59:50.894Z,13.68
2017-07-22T03:00:19.030Z,13.75
2017-07-22T03:00:47.064Z,13.7
2017-07-22T03:01:15.071Z,13.73
2017-07-22T03:01:43.482Z,13.78
2017-07-22T03:02:11.651Z,13.81
2017-07-22T03:02:39.775Z,13.73
2017-07-22T03:03:07.930Z,13.79
2017-07-22T03:03:35.944Z,13.83
2017-07-22T03:04:04.074Z,13.84
2017-07-22T03:04:32.180Z,13.83
2017-07-22T03:05:00.383Z,13.88
2017-07-22T03:05:28.496Z,13.76
2017-07-22T03:05:56.634Z,13.79
2017-07-22T03:06:24.761Z,13.78
2017-07-22T03:06:52.981Z,13.78
2017-07-22T03:07:21.087Z,13.81
2017-07-22T03:07:49.278Z,13.84
2017-07-22T03:08:17.268Z,13.83
2017-07-22T03:08:45.407Z,13.83
2017-07-22T03:09:13.535Z,13.88
2017-07-22T03:09:41.742Z,13.78
2017-07-22T03:10:09.838Z,13.73
2017-07-22T03:10:38.079Z,13.76
2017-07-22T03:11:06.220Z,13.75
2017-07-22T03:11:34.452Z,13.73
2017-07-22T03:12:02.666Z,13.72
2017-07-22T03:12:30.830Z,13.84
2017-07-22T03:12:59.049Z,13.76
2017-07-22T03:13:27.302Z,13.75
2017-07-22T03:13:55.317Z,13.81
2017-07-22T03:14:23.457Z,13.78
2017-07-22T03:14:51.595Z,13.69
2017-07-22T03:15:19.529Z,13.79
2017-07-22T03:15:47.728Z,13.78
2017-07-22T03:16:15.986Z,13.73
2017-07-22T03:16:44.105Z,13.79
2017-07-22T03:17:12.286Z,13.84
2017-07-22T03:17:40.533Z,13.73
2017-07-22T03:18:08.796Z,13.69
2017-07-22T03:18:36.974Z,13.75
2017-07-22T03:19:05.182Z,13.72
2017-07-22T03:19:33.214Z,13.73
2017-07-22T03:20:01.422Z,13.7
2017-07-22T03:20:29.381Z,13.72
2017-07-22T03:20:57.420Z,13.78
2017-07-22T03:21:25.643Z,13.7
2017-07-22T03:21:53.881Z,13.75
2017-07-22T03:22:22.032Z,13.72
2017-07-22T03:22:50.256Z,13.72
2017-07-22T03:23:18.469Z,13.66
2017-07-22T03:23:46.641Z,13.7
2017-07-22T03:24:14.833Z,13.69
2017-07-22T03:24:43.058Z,13.62
2017-07-22T03:25:11.470Z,13.66
2017-07-22T03:25:39.607Z,13.65
2017-07-22T03:26:07.712Z,13.62
2017-07-22T03:26:35.880Z,13.66
2017-07-22T03:27:04.207Z,13.69
2017-07-22T03:27:32.247Z,13.66
2017-07-22T03:28:00.412Z,13.63
2017-07-22T03:28:28.646Z,13.51
2017-07-22T03:28:56.786Z,13.48
2017-07-22T03:29:24.892Z,13.5
2017-07-22T03:29:52.973Z,13.5
2017-07-22T03:30:20.934Z,13.48
2017-07-22T03:30:49.130Z,13.51
2017-07-22T03:31:17.371Z,13.58
2017-07-22T03:31:45.530Z,13.5
2017-07-22T03:32:13.736Z,13.55
2017-07-22T03:32:41.860Z,13.5
2017-07-22T03:33:09.979Z,13.48
2017-07-22T03:33:38.090Z,13.51
2017-07-22T03:34:06.290Z,13.45
2017-07-22T03:34:34.536Z,13.37
2017-07-22T03:35:02.758Z,13.45
2017-07-22T03:35:30.786Z,13.4
2017-07-22T03:35:59.007Z,13.48
2017-07-22T03:36:27.102Z,13.4
2017-07-22T03:36:55.282Z,13.45
2017-07-22T03:37:23.585Z,13.47
2017-07-22T03:37:51.823Z,13.4
2017-07-22T03:38:20.058Z,13.47
2017-07-22T03:38:48.135Z,13.42
2017-07-22T03:39:16.275Z,13.42
2017-07-22T03:39:44.408Z,13.32
2017-07-22T03:40:12.515Z,13.36
2017-07-22T03:40:40.583Z,13.44
2017-07-22T03:41:53.153Z,13.37
2017-07-22T03:42:21.303Z,13.31
2017-07-22T03:42:49.278Z,13.29
2017-07-22T03:43:17.334Z,13.39
2017-07-22T03:43:45.389Z,13.36
2017-07-22T03:44:13.429Z,13.36
2017-07-22T03:44:41.520Z,13.36
2017-07-22T03:45:09.648Z,13.31
2017-07-22T03:45:37.763Z,13.32
2017-07-22T03:46:06.493Z,13.32
2017-07-22T03:46:34.567Z,13.29
2017-07-22T03:47:02.749Z,13.37
2017-07-22T03:47:30.900Z,13.35
2017-07-22T03:47:58.947Z,13.35
2017-07-22T03:48:27.111Z,13.32
2017-07-22T03:48:55.112Z,13.32
2017-07-22T03:49:23.062Z,13.35
2017-07-22T03:49:51.143Z,13.39
2017-07-22T03:50:19.078Z,13.31
2017-07-22T03:50:47.159Z,13.31
2017-07-22T03:51:15.213Z,13.35
2017-07-22T03:51:43.260Z,13.28
2017-07-22T03:52:11.449Z,13.42
2017-07-22T03:52:39.629Z,13.39
2017-07-22T03:53:07.729Z,13.4
2017-07-22T03:53:35.783Z,13.37
2017-07-22T03:54:03.947Z,13.32
2017-07-22T03:54:32.040Z,13.39
2017-07-22T03:55:00.021Z,13.42
2017-07-22T03:55:28.152Z,13.39
2017-07-22T03:55:56.145Z,13.4
2017-07-22T03:56:24.360Z,13.36
2017-07-22T03:56:52.621Z,13.4
2017-07-22T03:57:20.791Z,13.39
2017-07-22T03:57:48.934Z,13.36
2017-07-22T03:58:17.028Z,13.32
2017-07-22T03:58:45.096Z,13.31
2017-07-22T03:59:13.290Z,13.35
2017-07-22T03:59:41.335Z,13.35
2017-07-22T04:00:09.505Z,13.28
2017-07-22T04:00:37.692Z,13.19
2017-07-22T04:01:05.861Z,13.24
2017-07-22T04:01:33.956Z,13.24
2017-07-22T04:02:01.959Z,13.25
2017-07-22T04:02:30.234Z,13.21
2017-07-22T04:02:58.334Z,13.19
2017-07-22T04:03:26.591Z,13.2
2017-07-22T04:03:55.037Z,13.24
2017-07-22T04:04:23.197Z,13.11
2017-07-22T04:04:51.140Z,13.13
2017-07-22T04:05:19.243Z,13.11
2017-07-22T04:05:47.349Z,13.09
2017-07-22T04:06:15.338Z,13.06
2017-07-22T04:06:43.549Z,13.11
2017-07-22T04:07:11.715Z,13.07
2017-07-22T04:07:39.985Z,13.07
2017-07-22T04:08:08.169Z,13.16
2017-07-22T04:08:36.253Z,13.06
2017-07-22T04:09:04.419Z,13.06
2017-07-22T04:09:32.513Z,13.02
2017-07-22T04:10:00.664Z,12.95
2017-07-22T04:10:28.833Z,12.96
2017-07-22T04:10:56.875Z,12.86
2017-07-22T04:11:25.036Z,13.01
2017-07-22T04:11:53.152Z,12.98
2017-07-22T04:12:21.320Z,12.94
2017-07-22T04:12:49.621Z,12.94
2017-07-22T04:13:17.804Z,12.99
2017-07-22T04:13:45.884Z,12.98
2017-07-22T04:14:14.079Z,12.95
2017-07-22T04:14:42.656Z,12.96
2017-07-22T04:15:10.757Z,12.83
2017-07-22T04:15:38.930Z,12.84
2017-07-22T04:16:07.444Z,12.81
2017-07-22T04:16:35.552Z,12.89
2017-07-22T04:17:03.743Z,12.83
2017-07-22T04:17:31.732Z,12.84
2017-07-22T04:17:59.778Z,12.81
2017-07-22T04:18:27.810Z,12.83
2017-07-22T04:18:55.778Z,12.81
2017-07-22T04:19:23.798Z,12.77
2017-07-22T04:19:51.873Z,12.81
2017-07-22T04:20:20.058Z,12.71
2017-07-22T04:20:48.217Z,12.77
2017-07-22T04:21:16.248Z,12.63
2017-07-22T04:21:44.233Z,12.77
2017-07-22T04:22:12.216Z,12.62
2017-07-22T04:22:40.454Z,12.7
2017-07-22T04:23:08.493Z,12.61
2017-07-22T04:23:36.589Z,12.61
2017-07-22T04:24:04.806Z,12.65
2017-07-22T04:24:32.951Z,12.63
2017-07-22T04:25:01.108Z,12.58
2017-07-22T04:25:29.353Z,12.58
2017-07-22T04:25:57.446Z,12.61
2017-07-22T04:26:25.536Z,12.45
2017-07-22T04:26:53.598Z,12.51
2017-07-22T04:27:21.693Z,12.52
2017-07-22T04:27:49.989Z,12.53
2017-07-22T04:28:17.792Z,12.62
2017-07-22T04:28:45.974Z,12.48
2017-07-22T04:29:14.202Z,12.53
2017-07-22T04:29:42.375Z,12.51
2017-07-22T04:30:10.430Z,12.47
2017-07-22T04:30:38.620Z,12.43
2017-07-22T04:31:06.872Z,12.38
2017-07-22T04:33:20.156Z,12.41
2017-07-22T04:33:48.223Z,12.51
2017-07-22T04:34:16.300Z,12.45
2017-07-22T04:34:44.417Z,12.44
2017-07-22T04:35:12.536Z,12.45
2017-07-22T04:35:40.728Z,12.45
2017-07-22T04:36:08.750Z,12.47
2017-07-22T04:36:36.904Z,12.65
2017-07-22T04:37:04.937Z,12.51
2017-07-22T04:37:33.097Z,12.62
2017-07-22T04:38:01.321Z,12.59
2017-07-22T04:38:29.574Z,12.69
2017-07-22T04:38:57.684Z,12.59
2017-07-22T04:39:25.864Z,12.61
2017-07-22T04:39:53.983Z,12.59
2017-07-22T04:40:22.102Z,12.65
2017-07-22T04:40:50.172Z,12.63
2017-07-22T04:41:18.338Z,12.66
2017-07-22T04:41:46.655Z,12.61
2017-07-22T04:42:14.740Z,12.65
2017-07-22T04:42:42.890Z,12.65
2017-07-22T04:43:11.053Z,12.66
2017-07-22T04:43:39.151Z,12.65
2017-07-22T04:44:07.164Z,12.65
2017-07-22T04:44:35.236Z,12.65
2017-07-22T04:45:03.413Z,12.65
2017-07-22T04:45:31.614Z,12.61
2017-07-22T04:45:59.824Z,12.65
2017-07-22T04:46:27.965Z,12.65
2017-07-22T04:46:56.165Z,12.61
2017-07-22T04:47:24.136Z,12.61
2017-07-22T04:47:52.384Z,12.65
2017-07-22T04:48:20.681Z,12.59
2017-07-22T04:48:48.880Z,12.59
2017-07-22T04:49:17.024Z,12.62
2017-07-22T04:49:45.106Z,12.62
2017-07-22T04:50:13.348Z,12.55
2017-07-22T04:50:41.446Z,12.55
2017-07-22T04:51:09.499Z,12.59
2017-07-22T04:51:37.610Z,12.58
2017-07-22T04:52:05.746Z,12.59
2017-07-22T04:52:33.965Z,12.51
2017-07-22T04:53:02.176Z,12.55
2017-07-22T04:53:30.333Z,12.56
2017-07-22T04:53:58.516Z,12.47
2017-07-22T04:54:26.658Z,12.55
2017-07-22T04:54:54.842Z,12.45
2017-07-22T04:55:22.929Z,12.45
2017-07-22T04:55:51.202Z,12.52
2017-07-22T04:56:19.625Z,12.47
2017-07-22T04:56:47.651Z,12.55
2017-07-22T04:57:16.029Z,12.52
2017-07-22T04:57:44.243Z,12.52
2017-07-22T04:58:12.490Z,12.51
2017-07-22T04:58:40.799Z,12.47
2017-07-22T04:59:08.907Z,12.47
2017-07-22T04:59:37.106Z,12.48
2017-07-22T05:00:05.322Z,12.55
2017-07-22T05:00:33.363Z,12.52
2017-07-22T05:01:01.599Z,12.53
2017-07-22T05:01:29.802Z,12.52
2017-07-22T05:01:57.959Z,12.55
2017-07-22T05:02:26.230Z,12.53
2017-07-22T05:02:54.479Z,12.56
2017-07-22T05:03:22.554Z,12.59
2017-07-22T05:03:50.744Z,12.59
2017-07-22T05:04:18.729Z,12.55
2017-07-22T05:04:46.795Z,12.59
2017-07-22T05:05:14.927Z,12.52
2017-07-22T05:05:43.132Z,12.61
2017-07-22T05:06:11.338Z,12.61
2017-07-22T05:06:39.481Z,12.58
2017-07-22T05:07:07.712Z,12.59
2017-07-22T05:07:35.992Z,12.62
2017-07-22T05:08:04.092Z,12.59
2017-07-22T05:08:32.349Z,12.58
2017-07-22T05:09:00.539Z,12.61
2017-07-22T05:09:28.651Z,12.61
2017-07-22T05:09:56.779Z,12.62
2017-07-22T05:10:24.704Z,12.56
2017-07-22T05:10:52.754Z,12.52
2017-07-22T05:11:20.884Z,12.58
2017-07-22T05:11:49.093Z,12.62
2017-07-22T05:12:17.345Z,12.56
2017-07-22T05:12:45.509Z,12.59
2017-07-22T05:13:13.720Z,12.59
2017-07-22T05:13:41.940Z,12.58
2017-07-22T05:14:10.197Z,12.61
2017-07-22T05:14:38.248Z,12.61
2017-07-22T05:15:06.498Z,12.59
2017-07-22T05:15:34.750Z,12.56
2017-07-22T05:16:02.833Z,12.53
2017-07-22T05:16:30.947Z,12.55
2017-07-22T05:16:59.161Z,12.52
2017-07-22T05:17:27.300Z,12.45
2017-07-22T05:17:55.278Z,12.47
2017-07-22T05:18:23.476Z,12.52
2017-07-22T05:18:51.785Z,12.48
2017-07-22T05:19:20.022Z,12.48
2017-07-22T05:19:48.100Z,12.45
2017-07-22T05:20:16.223Z,12.45
2017-07-22T05:20:44.298Z,12.45
2017-07-22T05:21:12.542Z,12.31
2017-07-22T05:21:40.670Z,12.31
2017-07-22T05:22:08.718Z,12.33
2017-07-22T05:22:36.915Z,12.26
2017-07-22T05:23:05.147Z,12.15
2017-07-22T05:23:33.222Z,12.13
2017-07-22T05:24:01.553Z,12.13
2017-07-22T05:24:29.644Z,12.16
2017-07-22T05:24:57.849Z,12.19
2017-07-22T05:25:25.993Z,12.16
2017-07-22T05:25:54.094Z,12.15
2017-07-22T05:26:22.315Z,12.11
2017-07-22T05:26:50.430Z,12.2
2017-07-22T05:27:18.527Z,12.16
2017-07-22T05:27:46.581Z,12.13
2017-07-22T05:28:14.724Z,12.2
2017-07-22T05:28:42.829Z,12.2
2017-07-22T05:29:10.864Z,12.16
2017-07-22T05:29:39.086Z,12.22
2017-07-22T05:30:07.301Z,12.28
2017-07-22T05:30:35.559Z,12.33
2017-07-22T05:31:03.641Z,12.31
2017-07-22T05:31:31.752Z,12.29
2017-07-22T05:31:59.860Z,12.28
2017-07-22T05:32:27.993Z,12.37
2017-07-22T05:32:56.088Z,12.38
2017-07-22T05:33:24.264Z,12.45
2017-07-22T05:33:52.302Z,12.45
2017-07-22T05:34:20.350Z,12.4
2017-07-22T05:34:48.579Z,12.51
2017-07-22T05:35:16.614Z,12.43
2017-07-22T05:35:44.864Z,12.44
2017-07-22T05:36:13.053Z,12.47
2017-07-22T05:36:41.215Z,12.43
2017-07-22T05:37:09.285Z,12.37
2017-07-22T05:37:37.382Z,12.38
2017-07-22T05:38:05.520Z,12.31
2017-07-22T05:38:33.724Z,12.33
2017-07-22T05:39:01.932Z,12.36
2017-07-22T05:39:29.867Z,12.33
2017-07-22T05:39:58.065Z,12.41
2017-07-22T05:40:26.117Z,12.34
2017-07-22T05:40:54.297Z,12.37
2017-07-22T05:41:22.531Z,12.33
2017-07-22T05:41:50.796Z,12.31
2017-07-22T05:42:18.994Z,12.41
2017-07-22T05:42:47.085Z,12.37
2017-07-22T05:43:15.278Z,12.34
2017-07-22T05:43:43.436Z,12.38
2017-07-22T05:44:11.670Z,12.33
2017-07-22T05:44:39.717Z,12.41
2017-07-22T05:45:07.960Z,12.36
2017-07-22T05:45:36.060Z,12.31
2017-07-22T05:46:03.906Z,12.34
2017-07-22T05:46:32.135Z,12.29
2017-07-22T05:47:00.279Z,12.23
2017-07-22T05:47:28.557Z,12.26
2017-07-22T05:47:56.668Z,12.29
2017-07-22T05:48:24.825Z,12.26
2017-07-22T05:48:52.964Z,12.29
2017-07-22T05:49:21.219Z,12.26
2017-07-22T05:49:49.326Z,12.22
2017-07-22T05:50:17.416Z,12.28
2017-07-22T05:50:45.608Z,12.16
2017-07-22T05:51:13.800Z,12.2
2017-07-22T05:51:42.010Z,12.11
2017-07-22T05:52:10.024Z,12.16
2017-07-22T05:52:38.271Z,12.18
2017-07-22T05:53:06.512Z,12.11
2017-07-22T05:53:34.722Z,12.1
2017-07-22T05:54:03.058Z,12.07
2017-07-22T05:54:31.288Z,12
2017-07-22T05:54:59.518Z,11.94
2017-07-22T05:55:27.636Z,11.98
2017-07-22T05:55:55.779Z,11.91
2017-07-22T05:56:23.954Z,11.85
2017-07-22T05:56:52.077Z,11.89
2017-07-22T05:57:20.215Z,11.89
2017-07-22T05:57:48.356Z,11.94
2017-07-22T05:58:16.541Z,11.86
2017-07-22T05:58:44.576Z,11.86
2017-07-22T05:59:12.895Z,11.85
2017-07-22T05:59:41.106Z,11.78
2017-07-22T06:00:09.213Z,11.79
2017-07-22T06:00:37.392Z,11.78
2017-07-22T06:01:05.497Z,11.81
2017-07-22T06:01:33.647Z,11.85
2017-07-22T06:02:01.803Z,11.81
2017-07-22T06:02:29.905Z,11.82
2017-07-22T06:02:57.965Z,11.81
2017-07-22T06:03:26.153Z,11.86
2017-07-22T06:03:54.384Z,11.81
2017-07-22T06:04:22.606Z,11.82
2017-07-22T06:04:50.806Z,11.88
2017-07-22T06:05:18.901Z,11.86
2017-07-22T06:05:47.033Z,11.91
2017-07-22T06:06:15.140Z,11.95
2017-07-22T06:06:43.239Z,11.91